sensor_id;sensor_type;location;lat;lon;timestamp;P1;durP1;ratioP1;P2;durP2;ratioP2
21802;SDS011;18591;47.080;22.214;2022-11-15T00:02:06;18.10;;;11.50;;
21802;SDS011;18591;47.080;22.214;2022-11-15T00:04:27;16.40;;;10.60;;
21802;SDS011;18591;47.080;22.214;2022-11-15T00:06:48;17.57;;;10.87;;
21802;SDS011;18591;47.080;22.214;2022-11-15T00:09:09;17.33;;;12.00;;
21802;SDS011;18591;47.080;22.214;2022-11-15T00:11:30;18.37;;;12.13;;
21802;SDS011;18591;47.080;22.214;2022-11-15T00:13:51;17.70;;;12.10;;
21802;SDS011;18591;47.080;22.214;2022-11-15T00:16:15;19.17;;;12.20;;
21802;SDS011;18591;47.080;22.214;2022-11-15T00:18:35;18.03;;;12.40;;
21802;SDS011;18591;47.080;22.214;2022-11-15T00:21:02;18.00;;;12.00;;
21802;SDS011;18591;47.080;22.214;2022-11-15T00:23:25;17.27;;;11.80;;
21802;SDS011;18591;47.080;22.214;2022-11-15T00:25:45;18.30;;;12.17;;
21802;SDS011;18591;47.080;22.214;2022-11-15T00:28:19;18.87;;;12.30;;
21802;SDS011;18591;47.080;22.214;2022-11-15T00:30:40;19.97;;;13.00;;
21802;SDS011;18591;47.080;22.214;2022-11-15T00:33:03;17.83;;;12.57;;
21802;SDS011;18591;47.080;22.214;2022-11-15T00:35:25;21.03;;;13.57;;
21802;SDS011;18591;47.080;22.214;2022-11-15T00:37:47;20.53;;;13.20;;
21802;SDS011;18591;47.080;22.214;2022-11-15T00:40:08;22.33;;;13.20;;
21802;SDS011;18591;47.080;22.214;2022-11-15T00:42:29;20.17;;;13.60;;
21802;SDS011;18591;47.080;22.214;2022-11-15T00:44:50;20.27;;;14.57;;
21802;SDS011;18591;47.080;22.214;2022-11-15T00:47:11;23.20;;;15.27;;
21802;SDS011;18591;47.080;22.214;2022-11-15T00:49:31;24.27;;;15.10;;
21802;SDS011;18591;47.080;22.214;2022-11-15T00:51:53;23.87;;;16.37;;
21802;SDS011;18591;47.080;22.214;2022-11-15T00:54:13;23.87;;;15.10;;
21802;SDS011;18591;47.080;22.214;2022-11-15T00:56:34;23.40;;;15.03;;
21802;SDS011;18591;47.080;22.214;2022-11-15T00:58:54;22.33;;;13.93;;
21802;SDS011;18591;47.080;22.214;2022-11-15T01:01:14;19.93;;;13.10;;
21802;SDS011;18591;47.080;22.214;2022-11-15T01:03:35;20.83;;;12.60;;
21802;SDS011;18591;47.080;22.214;2022-11-15T01:05:58;21.40;;;12.53;;
21802;SDS011;18591;47.080;22.214;2022-11-15T01:08:20;19.87;;;12.97;;
21802;SDS011;18591;47.080;22.214;2022-11-15T01:10:41;21.83;;;12.73;;
21802;SDS011;18591;47.080;22.214;2022-11-15T01:13:02;21.37;;;13.40;;
21802;SDS011;18591;47.080;22.214;2022-11-15T01:15:22;23.37;;;12.60;;
21802;SDS011;18591;47.080;22.214;2022-11-15T01:17:43;20.00;;;11.87;;
21802;SDS011;18591;47.080;22.214;2022-11-15T01:23:28;16.30;;;10.53;;
21802;SDS011;18591;47.080;22.214;2022-11-15T01:25:49;15.53;;;9.57;;
21802;SDS011;18591;47.080;22.214;2022-11-15T01:28:10;13.93;;;9.50;;
21802;SDS011;18591;47.080;22.214;2022-11-15T01:30:31;13.50;;;8.97;;
21802;SDS011;18591;47.080;22.214;2022-11-15T01:32:51;14.27;;;9.47;;
21802;SDS011;18591;47.080;22.214;2022-11-15T01:35:12;13.03;;;8.60;;
21802;SDS011;18591;47.080;22.214;2022-11-15T01:37:33;13.27;;;8.27;;
21802;SDS011;18591;47.080;22.214;2022-11-15T01:39:53;12.33;;;7.80;;
21802;SDS011;18591;47.080;22.214;2022-11-15T01:42:14;13.13;;;8.20;;
21802;SDS011;18591;47.080;22.214;2022-11-15T01:47:04;10.70;;;7.97;;
21802;SDS011;18591;47.080;22.214;2022-11-15T01:49:29;11.10;;;7.67;;
21802;SDS011;18591;47.080;22.214;2022-11-15T01:51:54;12.47;;;8.57;;
21802;SDS011;18591;47.080;22.214;2022-11-15T01:58:08;13.10;;;8.90;;
21802;SDS011;18591;47.080;22.214;2022-11-15T02:00:30;16.20;;;9.83;;
21802;SDS011;18591;47.080;22.214;2022-11-15T02:02:52;12.43;;;8.67;;
21802;SDS011;18591;47.080;22.214;2022-11-15T02:05:13;16.10;;;9.17;;
21802;SDS011;18591;47.080;22.214;2022-11-15T02:07:34;15.43;;;9.60;;
21802;SDS011;18591;47.080;22.214;2022-11-15T02:09:58;15.77;;;10.00;;
21802;SDS011;18591;47.080;22.214;2022-11-15T02:12:23;14.93;;;9.27;;
21802;SDS011;18591;47.080;22.214;2022-11-15T02:14:44;16.63;;;10.03;;
21802;SDS011;18591;47.080;22.214;2022-11-15T02:17:13;17.93;;;10.80;;
21802;SDS011;18591;47.080;22.214;2022-11-15T02:25:03;15.87;;;10.43;;
21802;SDS011;18591;47.080;22.214;2022-11-15T02:27:29;15.27;;;10.47;;
21802;SDS011;18591;47.080;22.214;2022-11-15T02:30:23;17.53;;;10.77;;
21802;SDS011;18591;47.080;22.214;2022-11-15T02:40:57;14.73;;;9.60;;
21802;SDS011;18591;47.080;22.214;2022-11-15T02:43:25;16.33;;;9.40;;
21802;SDS011;18591;47.080;22.214;2022-11-15T02:46:54;14.00;;;8.47;;
21802;SDS011;18591;47.080;22.214;2022-11-15T02:49:18;17.00;;;9.23;;
21802;SDS011;18591;47.080;22.214;2022-11-15T02:51:39;16.27;;;9.50;;
21802;SDS011;18591;47.080;22.214;2022-11-15T02:54:01;13.97;;;8.77;;
21802;SDS011;18591;47.080;22.214;2022-11-15T02:56:22;12.60;;;8.30;;
21802;SDS011;18591;47.080;22.214;2022-11-15T02:59:05;13.13;;;8.77;;
21802;SDS011;18591;47.080;22.214;2022-11-15T03:01:42;12.50;;;8.00;;
21802;SDS011;18591;47.080;22.214;2022-11-15T03:09:33;13.43;;;8.67;;
21802;SDS011;18591;47.080;22.214;2022-11-15T03:12:04;10.80;;;7.90;;
21802;SDS011;18591;47.080;22.214;2022-11-15T03:14:33;13.27;;;8.03;;
21802;SDS011;18591;47.080;22.214;2022-11-15T03:21:54;14.97;;;7.40;;
21802;SDS011;18591;47.080;22.214;2022-11-15T03:27:06;13.07;;;8.23;;
21802;SDS011;18591;47.080;22.214;2022-11-15T03:29:32;12.17;;;7.03;;
21802;SDS011;18591;47.080;22.214;2022-11-15T03:31:59;10.93;;;7.57;;
21802;SDS011;18591;47.080;22.214;2022-11-15T03:36:58;10.97;;;8.10;;
21802;SDS011;18591;47.080;22.214;2022-11-15T03:39:19;14.00;;;8.77;;
21802;SDS011;18591;47.080;22.214;2022-11-15T03:44:20;14.63;;;9.13;;
21802;SDS011;18591;47.080;22.214;2022-11-15T03:46:46;16.73;;;11.50;;
21802;SDS011;18591;47.080;22.214;2022-11-15T03:49:15;17.67;;;11.80;;
21802;SDS011;18591;47.080;22.214;2022-11-15T03:51:42;16.00;;;10.77;;
21802;SDS011;18591;47.080;22.214;2022-11-15T03:54:04;14.67;;;10.50;;
21802;SDS011;18591;47.080;22.214;2022-11-15T03:56:28;17.03;;;10.83;;
21802;SDS011;18591;47.080;22.214;2022-11-15T03:58:48;16.03;;;10.17;;
21802;SDS011;18591;47.080;22.214;2022-11-15T04:01:09;16.87;;;11.37;;
21802;SDS011;18591;47.080;22.214;2022-11-15T04:03:29;18.57;;;12.60;;
21802;SDS011;18591;47.080;22.214;2022-11-15T04:05:50;18.47;;;13.47;;
21802;SDS011;18591;47.080;22.214;2022-11-15T04:08:11;17.50;;;12.47;;
21802;SDS011;18591;47.080;22.214;2022-11-15T04:10:32;21.17;;;14.00;;
21802;SDS011;18591;47.080;22.214;2022-11-15T04:12:53;19.17;;;13.33;;
21802;SDS011;18591;47.080;22.214;2022-11-15T04:15:15;17.07;;;12.13;;
21802;SDS011;18591;47.080;22.214;2022-11-15T04:20:03;17.23;;;11.27;;
21802;SDS011;18591;47.080;22.214;2022-11-15T04:22:44;16.40;;;10.87;;
21802;SDS011;18591;47.080;22.214;2022-11-15T04:25:23;15.30;;;10.40;;
21802;SDS011;18591;47.080;22.214;2022-11-15T04:27:50;14.90;;;9.73;;
21802;SDS011;18591;47.080;22.214;2022-11-15T04:30:11;16.13;;;10.30;;
21802;SDS011;18591;47.080;22.214;2022-11-15T04:32:32;16.37;;;10.93;;
21802;SDS011;18591;47.080;22.214;2022-11-15T04:34:52;20.10;;;12.10;;
21802;SDS011;18591;47.080;22.214;2022-11-15T04:37:13;18.60;;;12.57;;
21802;SDS011;18591;47.080;22.214;2022-11-15T04:39:35;20.47;;;12.03;;
21802;SDS011;18591;47.080;22.214;2022-11-15T04:41:56;18.17;;;11.27;;
21802;SDS011;18591;47.080;22.214;2022-11-15T04:44:17;16.20;;;10.90;;
21802;SDS011;18591;47.080;22.214;2022-11-15T04:46:37;15.23;;;10.70;;
21802;SDS011;18591;47.080;22.214;2022-11-15T04:48:58;15.10;;;10.73;;
21802;SDS011;18591;47.080;22.214;2022-11-15T04:51:19;15.03;;;9.93;;
21802;SDS011;18591;47.080;22.214;2022-11-15T04:56:26;14.83;;;10.07;;
21802;SDS011;18591;47.080;22.214;2022-11-15T04:58:52;15.43;;;9.67;;
21802;SDS011;18591;47.080;22.214;2022-11-15T05:01:13;17.73;;;10.43;;
21802;SDS011;18591;47.080;22.214;2022-11-15T05:03:34;17.93;;;11.43;;
21802;SDS011;18591;47.080;22.214;2022-11-15T05:06:14;20.03;;;11.27;;
21802;SDS011;18591;47.080;22.214;2022-11-15T05:08:37;20.30;;;13.03;;
21802;SDS011;18591;47.080;22.214;2022-11-15T05:10:58;21.40;;;12.00;;
21802;SDS011;18591;47.080;22.214;2022-11-15T05:13:19;21.23;;;10.73;;
21802;SDS011;18591;47.080;22.214;2022-11-15T05:15:40;18.23;;;10.37;;
21802;SDS011;18591;47.080;22.214;2022-11-15T05:18:01;20.23;;;12.23;;
21802;SDS011;18591;47.080;22.214;2022-11-15T05:20:23;26.80;;;15.40;;
21802;SDS011;18591;47.080;22.214;2022-11-15T05:22:44;30.90;;;16.90;;
21802;SDS011;18591;47.080;22.214;2022-11-15T05:25:05;27.33;;;14.80;;
21802;SDS011;18591;47.080;22.214;2022-11-15T05:27:26;23.20;;;14.43;;
21802;SDS011;18591;47.080;22.214;2022-11-15T05:29:47;22.17;;;12.83;;
21802;SDS011;18591;47.080;22.214;2022-11-15T05:32:08;17.70;;;11.63;;
21802;SDS011;18591;47.080;22.214;2022-11-15T05:34:30;18.13;;;12.63;;
21802;SDS011;18591;47.080;22.214;2022-11-15T05:36:51;18.67;;;11.70;;
21802;SDS011;18591;47.080;22.214;2022-11-15T05:39:12;21.10;;;13.83;;
21802;SDS011;18591;47.080;22.214;2022-11-15T05:41:41;44.43;;;23.07;;
21802;SDS011;18591;47.080;22.214;2022-11-15T05:44:16;22.60;;;15.63;;
21802;SDS011;18591;47.080;22.214;2022-11-15T05:46:39;25.60;;;16.43;;
21802;SDS011;18591;47.080;22.214;2022-11-15T05:49:02;21.13;;;14.57;;
21802;SDS011;18591;47.080;22.214;2022-11-15T05:51:26;19.63;;;13.13;;
21802;SDS011;18591;47.080;22.214;2022-11-15T05:53:49;20.73;;;13.67;;
21802;SDS011;18591;47.080;22.214;2022-11-15T05:56:12;23.30;;;13.90;;
21802;SDS011;18591;47.080;22.214;2022-11-15T05:58:33;26.03;;;15.27;;
21802;SDS011;18591;47.080;22.214;2022-11-15T06:00:57;28.27;;;15.13;;
21802;SDS011;18591;47.080;22.214;2022-11-15T06:03:18;28.70;;;16.87;;
21802;SDS011;18591;47.080;22.214;2022-11-15T06:05:45;38.53;;;20.00;;
21802;SDS011;18591;47.080;22.214;2022-11-15T06:08:06;35.60;;;20.70;;
21802;SDS011;18591;47.080;22.214;2022-11-15T06:10:26;38.50;;;21.67;;
21802;SDS011;18591;47.080;22.214;2022-11-15T06:12:47;31.07;;;18.73;;
21802;SDS011;18591;47.080;22.214;2022-11-15T06:15:23;30.93;;;18.50;;
21802;SDS011;18591;47.080;22.214;2022-11-15T06:17:43;37.27;;;20.87;;
21802;SDS011;18591;47.080;22.214;2022-11-15T06:20:04;38.97;;;23.43;;
21802;SDS011;18591;47.080;22.214;2022-11-15T06:22:24;52.47;;;25.00;;
21802;SDS011;18591;47.080;22.214;2022-11-15T06:24:45;45.30;;;24.30;;
21802;SDS011;18591;47.080;22.214;2022-11-15T06:27:06;39.43;;;24.30;;
21802;SDS011;18591;47.080;22.214;2022-11-15T06:29:27;33.00;;;20.57;;
21802;SDS011;18591;47.080;22.214;2022-11-15T06:31:48;31.47;;;20.70;;
21802;SDS011;18591;47.080;22.214;2022-11-15T06:34:08;29.57;;;18.07;;
21802;SDS011;18591;47.080;22.214;2022-11-15T06:36:29;30.47;;;18.93;;
21802;SDS011;18591;47.080;22.214;2022-11-15T06:38:50;26.87;;;18.17;;
21802;SDS011;18591;47.080;22.214;2022-11-15T06:45:00;29.07;;;17.80;;
21802;SDS011;18591;47.080;22.214;2022-11-15T06:47:21;30.63;;;18.23;;
21802;SDS011;18591;47.080;22.214;2022-11-15T06:49:42;24.47;;;15.87;;
21802;SDS011;18591;47.080;22.214;2022-11-15T06:52:03;28.20;;;17.67;;
21802;SDS011;18591;47.080;22.214;2022-11-15T06:54:24;29.10;;;17.97;;
21802;SDS011;18591;47.080;22.214;2022-11-15T06:56:45;24.43;;;15.37;;
21802;SDS011;18591;47.080;22.214;2022-11-15T06:59:05;26.60;;;16.30;;
21802;SDS011;18591;47.080;22.214;2022-11-15T07:01:26;24.07;;;16.97;;
21802;SDS011;18591;47.080;22.214;2022-11-15T07:03:46;23.03;;;16.27;;
21802;SDS011;18591;47.080;22.214;2022-11-15T07:06:10;22.20;;;15.07;;
21802;SDS011;18591;47.080;22.214;2022-11-15T07:08:30;21.67;;;15.30;;
21802;SDS011;18591;47.080;22.214;2022-11-15T07:10:52;21.43;;;15.43;;
21802;SDS011;18591;47.080;22.214;2022-11-15T07:13:13;23.33;;;15.40;;
21802;SDS011;18591;47.080;22.214;2022-11-15T07:15:33;24.20;;;16.10;;
21802;SDS011;18591;47.080;22.214;2022-11-15T07:17:54;25.20;;;17.03;;
21802;SDS011;18591;47.080;22.214;2022-11-15T07:20:15;27.30;;;17.67;;
21802;SDS011;18591;47.080;22.214;2022-11-15T07:22:42;24.47;;;16.50;;
21802;SDS011;18591;47.080;22.214;2022-11-15T07:25:02;27.10;;;16.60;;
21802;SDS011;18591;47.080;22.214;2022-11-15T07:27:24;28.67;;;16.67;;
21802;SDS011;18591;47.080;22.214;2022-11-15T07:29:44;22.83;;;14.87;;
21802;SDS011;18591;47.080;22.214;2022-11-15T07:32:05;19.00;;;13.27;;
21802;SDS011;18591;47.080;22.214;2022-11-15T07:34:26;16.37;;;11.77;;
21802;SDS011;18591;47.080;22.214;2022-11-15T07:36:46;18.93;;;10.07;;
21802;SDS011;18591;47.080;22.214;2022-11-15T07:39:07;17.67;;;10.30;;
21802;SDS011;18591;47.080;22.214;2022-11-15T07:41:28;14.50;;;8.90;;
21802;SDS011;18591;47.080;22.214;2022-11-15T07:43:52;13.53;;;9.53;;
21802;SDS011;18591;47.080;22.214;2022-11-15T07:46:13;13.43;;;8.90;;
21802;SDS011;18591;47.080;22.214;2022-11-15T07:48:35;14.87;;;9.47;;
21802;SDS011;18591;47.080;22.214;2022-11-15T07:51:03;15.80;;;9.37;;
21802;SDS011;18591;47.080;22.214;2022-11-15T07:53:31;18.30;;;10.67;;
21802;SDS011;18591;47.080;22.214;2022-11-15T07:55:53;14.77;;;10.10;;
21802;SDS011;18591;47.080;22.214;2022-11-15T07:58:14;18.30;;;10.60;;
21802;SDS011;18591;47.080;22.214;2022-11-15T08:00:34;15.15;;;11.20;;
21802;SDS011;18591;47.080;22.214;2022-11-15T08:03:29;18.08;;;9.95;;
21802;SDS011;18591;47.080;22.214;2022-11-15T08:05:43;12.52;;;9.50;;
21802;SDS011;18591;47.080;22.214;2022-11-15T08:08:11;15.82;;;10.70;;
21802;SDS011;18591;47.080;22.214;2022-11-15T08:10:32;16.73;;;10.45;;
21802;SDS011;18591;47.080;22.214;2022-11-15T08:13:00;19.80;;;9.70;;
21802;SDS011;18591;47.080;22.214;2022-11-15T08:15:22;14.80;;;9.95;;
21802;SDS011;18591;47.080;22.214;2022-11-15T08:17:43;15.30;;;10.27;;
21802;SDS011;18591;47.080;22.214;2022-11-15T08:20:04;16.75;;;10.45;;
21802;SDS011;18591;47.080;22.214;2022-11-15T08:22:26;19.75;;;12.25;;
21802;SDS011;18591;47.080;22.214;2022-11-15T08:24:46;20.08;;;11.80;;
21802;SDS011;18591;47.080;22.214;2022-11-15T08:27:06;18.48;;;11.48;;
21802;SDS011;18591;47.080;22.214;2022-11-15T08:29:35;17.27;;;11.48;;
21802;SDS011;18591;47.080;22.214;2022-11-15T08:31:56;16.65;;;11.32;;
21802;SDS011;18591;47.080;22.214;2022-11-15T08:34:17;22.40;;;13.40;;
21802;SDS011;18591;47.080;22.214;2022-11-15T08:36:37;19.42;;;13.70;;
21802;SDS011;18591;47.080;22.214;2022-11-15T08:39:04;24.95;;;13.60;;
21802;SDS011;18591;47.080;22.214;2022-11-15T08:41:32;21.17;;;12.75;;
21802;SDS011;18591;47.080;22.214;2022-11-15T08:43:56;24.73;;;14.07;;
21802;SDS011;18591;47.080;22.214;2022-11-15T08:46:17;24.23;;;16.48;;
21802;SDS011;18591;47.080;22.214;2022-11-15T08:48:38;72.97;;;37.17;;
21802;SDS011;18591;47.080;22.214;2022-11-15T08:50:59;40.30;;;25.15;;
21802;SDS011;18591;47.080;22.214;2022-11-15T08:56:07;31.58;;;19.13;;
21802;SDS011;18591;47.080;22.214;2022-11-15T08:58:29;23.35;;;16.20;;
21802;SDS011;18591;47.080;22.214;2022-11-15T09:00:50;20.40;;;12.63;;
21802;SDS011;18591;47.080;22.214;2022-11-15T09:03:10;16.30;;;11.63;;
21802;SDS011;18591;47.080;22.214;2022-11-15T09:05:31;15.15;;;11.20;;
21802;SDS011;18591;47.080;22.214;2022-11-15T09:07:55;18.73;;;10.80;;
21802;SDS011;18591;47.080;22.214;2022-11-15T09:10:16;13.50;;;9.45;;
21802;SDS011;18591;47.080;22.214;2022-11-15T09:12:37;15.75;;;8.88;;
21802;SDS011;18591;47.080;22.214;2022-11-15T09:14:58;11.25;;;8.00;;
21802;SDS011;18591;47.080;22.214;2022-11-15T09:17:19;16.25;;;10.35;;
21802;SDS011;18591;47.080;22.214;2022-11-15T09:22:29;38.03;;;25.27;;
21802;SDS011;18591;47.080;22.214;2022-11-15T09:24:49;32.45;;;22.48;;
21802;SDS011;18591;47.080;22.214;2022-11-15T09:27:10;28.33;;;20.00;;
21802;SDS011;18591;47.080;22.214;2022-11-15T09:29:32;21.27;;;16.30;;
21802;SDS011;18591;47.080;22.214;2022-11-15T09:31:52;28.95;;;19.15;;
21802;SDS011;18591;47.080;22.214;2022-11-15T09:34:13;25.10;;;16.73;;
21802;SDS011;18591;47.080;22.214;2022-11-15T09:36:33;20.80;;;14.60;;
21802;SDS011;18591;47.080;22.214;2022-11-15T09:38:55;16.13;;;11.75;;
21802;SDS011;18591;47.080;22.214;2022-11-15T09:41:31;16.25;;;11.95;;
21802;SDS011;18591;47.080;22.214;2022-11-15T09:44:18;37.00;;;22.30;;
21802;SDS011;18591;47.080;22.214;2022-11-15T09:49:28;26.20;;;15.63;;
21802;SDS011;18591;47.080;22.214;2022-11-15T09:51:51;28.77;;;16.75;;
21802;SDS011;18591;47.080;22.214;2022-11-15T09:53:57;30.35;;;16.45;;
21802;SDS011;18591;47.080;22.214;2022-11-15T09:56:30;21.40;;;12.05;;
21802;SDS011;18591;47.080;22.214;2022-11-15T09:58:39;20.50;;;13.13;;
21802;SDS011;18591;47.080;22.214;2022-11-15T10:01:06;40.17;;;24.80;;
21802;SDS011;18591;47.080;22.214;2022-11-15T10:05:44;34.53;;;22.27;;
21802;SDS011;18591;47.080;22.214;2022-11-15T10:12:44;54.17;;;34.58;;
21802;SDS011;18591;47.080;22.214;2022-11-15T10:14:50;57.97;;;35.22;;
21802;SDS011;18591;47.080;22.214;2022-11-15T10:24:23;24.48;;;15.48;;
21802;SDS011;18591;47.080;22.214;2022-11-15T10:26:29;45.80;;;23.23;;
21802;SDS011;18591;47.080;22.214;2022-11-15T10:28:31;47.97;;;23.33;;
21802;SDS011;18591;47.080;22.214;2022-11-15T10:30:38;38.03;;;19.63;;
21802;SDS011;18591;47.080;22.214;2022-11-15T10:32:43;27.45;;;16.70;;
21802;SDS011;18591;47.080;22.214;2022-11-15T10:34:47;25.23;;;16.45;;
21802;SDS011;18591;47.080;22.214;2022-11-15T10:36:54;21.92;;;14.30;;
21802;SDS011;18591;47.080;22.214;2022-11-15T10:39:00;17.75;;;12.82;;
21802;SDS011;18591;47.080;22.214;2022-11-15T10:41:06;36.38;;;21.15;;
21802;SDS011;18591;47.080;22.214;2022-11-15T10:43:14;44.20;;;27.10;;
21802;SDS011;18591;47.080;22.214;2022-11-15T10:45:24;37.70;;;23.75;;
21802;SDS011;18591;47.080;22.214;2022-11-15T10:47:30;42.10;;;24.95;;
21802;SDS011;18591;47.080;22.214;2022-11-15T10:49:52;54.15;;;31.90;;
21802;SDS011;18591;47.080;22.214;2022-11-15T10:51:57;61.88;;;34.65;;
21802;SDS011;18591;47.080;22.214;2022-11-15T10:54:22;46.88;;;29.17;;
21802;SDS011;18591;47.080;22.214;2022-11-15T10:56:27;43.83;;;25.83;;
21802;SDS011;18591;47.080;22.214;2022-11-15T10:58:37;38.97;;;23.90;;
21802;SDS011;18591;47.080;22.214;2022-11-15T11:00:41;62.42;;;36.78;;
21802;SDS011;18591;47.080;22.214;2022-11-15T11:03:03;68.88;;;41.15;;
21802;SDS011;18591;47.080;22.214;2022-11-15T11:07:43;42.00;;;27.45;;
21802;SDS011;18591;47.080;22.214;2022-11-15T11:11:06;30.30;;;19.95;;
21802;SDS011;18591;47.080;22.214;2022-11-15T11:15:30;18.05;;;12.63;;
21802;SDS011;18591;47.080;22.214;2022-11-15T11:17:36;16.95;;;11.13;;
21802;SDS011;18591;47.080;22.214;2022-11-15T11:24:47;19.45;;;11.50;;
21802;SDS011;18591;47.080;22.214;2022-11-15T11:47:51;11.20;;;9.10;;
21802;SDS011;18591;47.080;22.214;2022-11-15T11:50:19;13.82;;;9.05;;
21802;SDS011;18591;47.080;22.214;2022-11-15T11:56:52;11.20;;;9.25;;
21802;SDS011;18591;47.080;22.214;2022-11-15T11:58:59;12.68;;;9.57;;
21802;SDS011;18591;47.080;22.214;2022-11-15T12:01:13;11.65;;;9.27;;
21802;SDS011;18591;47.080;22.214;2022-11-15T12:05:49;50.20;;;26.25;;
21802;SDS011;18591;47.080;22.214;2022-11-15T12:08:01;51.60;;;26.75;;
21802;SDS011;18591;47.080;22.214;2022-11-15T12:12:38;56.58;;;29.02;;
21802;SDS011;18591;47.080;22.214;2022-11-15T12:14:53;37.70;;;20.08;;
21802;SDS011;18591;47.080;22.214;2022-11-15T12:16:58;25.00;;;15.15;;
21802;SDS011;18591;47.080;22.214;2022-11-15T12:19:04;23.10;;;12.45;;
21802;SDS011;18591;47.080;22.214;2022-11-15T12:23:44;11.75;;;8.15;;
21802;SDS011;18591;47.080;22.214;2022-11-15T12:25:54;12.60;;;8.60;;
21802;SDS011;18591;47.080;22.214;2022-11-15T12:28:08;12.23;;;9.52;;
21802;SDS011;18591;47.080;22.214;2022-11-15T12:30:48;14.65;;;10.75;;
21802;SDS011;18591;47.080;22.214;2022-11-15T12:33:00;13.23;;;10.07;;
21802;SDS011;18591;47.080;22.214;2022-11-15T12:35:04;14.77;;;10.93;;
21802;SDS011;18591;47.080;22.214;2022-11-15T12:47:36;31.20;;;17.15;;
21802;SDS011;18591;47.080;22.214;2022-11-15T12:53:53;31.73;;;16.17;;
21802;SDS011;18591;47.080;22.214;2022-11-15T12:58:24;32.22;;;15.80;;
21802;SDS011;18591;47.080;22.214;2022-11-15T13:02:44;21.27;;;13.43;;
21802;SDS011;18591;47.080;22.214;2022-11-15T13:04:48;20.80;;;13.45;;
21802;SDS011;18591;47.080;22.214;2022-11-15T13:08:57;18.20;;;12.93;;
21802;SDS011;18591;47.080;22.214;2022-11-15T13:11:08;17.55;;;13.25;;
21802;SDS011;18591;47.080;22.214;2022-11-15T13:13:43;22.50;;;13.00;;
21802;SDS011;18591;47.080;22.214;2022-11-15T13:18:33;17.63;;;12.00;;
21802;SDS011;18591;47.080;22.214;2022-11-15T13:32:48;19.48;;;14.30;;
21802;SDS011;18591;47.080;22.214;2022-11-15T13:34:51;20.58;;;13.90;;
21802;SDS011;18591;47.080;22.214;2022-11-15T13:36:54;19.75;;;13.90;;
21802;SDS011;18591;47.080;22.214;2022-11-15T13:39:04;20.38;;;14.82;;
21802;SDS011;18591;47.080;22.214;2022-11-15T13:41:31;23.02;;;14.90;;
21802;SDS011;18591;47.080;22.214;2022-11-15T13:43:37;22.05;;;14.05;;
21802;SDS011;18591;47.080;22.214;2022-11-15T13:45:39;21.75;;;15.70;;
21802;SDS011;18591;47.080;22.214;2022-11-15T13:47:41;24.55;;;16.90;;
21802;SDS011;18591;47.080;22.214;2022-11-15T13:49:45;24.27;;;17.45;;
21802;SDS011;18591;47.080;22.214;2022-11-15T13:51:48;25.05;;;18.65;;
21802;SDS011;18591;47.080;22.214;2022-11-15T13:54:36;25.88;;;18.60;;
21802;SDS011;18591;47.080;22.214;2022-11-15T13:56:30;27.77;;;19.23;;
21802;SDS011;18591;47.080;22.214;2022-11-15T13:58:37;29.25;;;21.33;;
21802;SDS011;18591;47.080;22.214;2022-11-15T14:00:43;34.25;;;25.15;;
21802;SDS011;18591;47.080;22.214;2022-11-15T14:02:46;35.80;;;24.65;;
21802;SDS011;18591;47.080;22.214;2022-11-15T14:04:53;36.38;;;25.23;;
21802;SDS011;18591;47.080;22.214;2022-11-15T14:07:01;34.83;;;23.75;;
21802;SDS011;18591;47.080;22.214;2022-11-15T14:11:15;38.72;;;24.65;;
21802;SDS011;18591;47.080;22.214;2022-11-15T14:13:29;37.83;;;24.40;;
21802;SDS011;18591;47.080;22.214;2022-11-15T14:15:36;37.13;;;23.50;;
21802;SDS011;18591;47.080;22.214;2022-11-15T14:17:42;32.67;;;21.33;;
21802;SDS011;18591;47.080;22.214;2022-11-15T14:19:50;35.13;;;20.83;;
21802;SDS011;18591;47.080;22.214;2022-11-15T14:24:29;30.77;;;20.00;;
21802;SDS011;18591;47.080;22.214;2022-11-15T14:26:33;35.15;;;20.73;;
21802;SDS011;18591;47.080;22.214;2022-11-15T14:28:36;34.97;;;22.75;;
21802;SDS011;18591;47.080;22.214;2022-11-15T14:30:41;39.90;;;24.58;;
21802;SDS011;18591;47.080;22.214;2022-11-15T14:32:47;53.10;;;28.25;;
21802;SDS011;18591;47.080;22.214;2022-11-15T14:34:58;47.92;;;28.98;;
21802;SDS011;18591;47.080;22.214;2022-11-15T14:37:01;45.95;;;29.80;;
21802;SDS011;18591;47.080;22.214;2022-11-15T14:39:03;62.88;;;36.80;;
21802;SDS011;18591;47.080;22.214;2022-11-15T14:41:10;54.25;;;33.35;;
21802;SDS011;18591;47.080;22.214;2022-11-15T14:43:20;62.20;;;36.30;;
21802;SDS011;18591;47.080;22.214;2022-11-15T14:45:22;60.72;;;36.17;;
21802;SDS011;18591;47.080;22.214;2022-11-15T14:47:24;58.80;;;34.00;;
21802;SDS011;18591;47.080;22.214;2022-11-15T14:49:27;49.00;;;31.25;;
21802;SDS011;18591;47.080;22.214;2022-11-15T14:51:29;41.03;;;27.25;;
21802;SDS011;18591;47.080;22.214;2022-11-15T14:53:31;37.42;;;23.70;;
21802;SDS011;18591;47.080;22.214;2022-11-15T14:55:34;30.80;;;21.73;;
21802;SDS011;18591;47.080;22.214;2022-11-15T14:57:37;30.00;;;20.92;;
21802;SDS011;18591;47.080;22.214;2022-11-15T14:59:39;27.88;;;19.45;;
21802;SDS011;18591;47.080;22.214;2022-11-15T15:01:44;24.73;;;17.20;;
21802;SDS011;18591;47.080;22.214;2022-11-15T15:03:46;24.63;;;17.33;;
21802;SDS011;18591;47.080;22.214;2022-11-15T15:05:49;24.08;;;17.55;;
21802;SDS011;18591;47.080;22.214;2022-11-15T15:07:51;23.45;;;16.40;;
21802;SDS011;18591;47.080;22.214;2022-11-15T15:09:54;25.60;;;17.38;;
21802;SDS011;18591;47.080;22.214;2022-11-15T15:12:17;22.50;;;15.75;;
21802;SDS011;18591;47.080;22.214;2022-11-15T15:14:21;21.85;;;15.85;;
21802;SDS011;18591;47.080;22.214;2022-11-15T15:16:23;31.42;;;20.35;;
21802;SDS011;18591;47.080;22.214;2022-11-15T15:18:26;35.35;;;25.48;;
21802;SDS011;18591;47.080;22.214;2022-11-15T15:20:28;36.67;;;26.77;;
21802;SDS011;18591;47.080;22.214;2022-11-15T15:22:32;38.55;;;27.52;;
21802;SDS011;18591;47.080;22.214;2022-11-15T15:24:34;42.15;;;29.73;;
21802;SDS011;18591;47.080;22.214;2022-11-15T15:26:36;40.22;;;28.52;;
21802;SDS011;18591;47.080;22.214;2022-11-15T15:28:40;45.03;;;29.70;;
21802;SDS011;18591;47.080;22.214;2022-11-15T15:30:43;46.08;;;30.23;;
21802;SDS011;18591;47.080;22.214;2022-11-15T15:32:45;46.90;;;31.17;;
21802;SDS011;18591;47.080;22.214;2022-11-15T15:34:47;49.58;;;31.88;;
21802;SDS011;18591;47.080;22.214;2022-11-15T15:36:50;43.35;;;30.17;;
21802;SDS011;18591;47.080;22.214;2022-11-15T15:39:54;38.00;;;27.05;;
21802;SDS011;18591;47.080;22.214;2022-11-15T15:41:57;38.70;;;25.38;;
21802;SDS011;18591;47.080;22.214;2022-11-15T15:44:00;37.92;;;26.88;;
21802;SDS011;18591;47.080;22.214;2022-11-15T15:46:02;42.95;;;28.60;;
21802;SDS011;18591;47.080;22.214;2022-11-15T15:48:05;41.72;;;29.73;;
21802;SDS011;18591;47.080;22.214;2022-11-15T15:50:12;43.95;;;30.05;;
21802;SDS011;18591;47.080;22.214;2022-11-15T15:52:21;42.97;;;30.30;;
21802;SDS011;18591;47.080;22.214;2022-11-15T15:54:23;41.97;;;28.98;;
21802;SDS011;18591;47.080;22.214;2022-11-15T15:56:25;44.90;;;29.42;;